createdAt,value
2018-03-27T00:00:33.853Z,86.87
2018-03-27T00:01:33.922Z,87.16
2018-03-27T00:02:34.009Z,86.87
2018-03-27T00:03:34.053Z,86.97
2018-03-27T00:04:34.101Z,86.11
2018-03-27T00:05:34.165Z,86.21
2018-03-27T00:06:34.293Z,86.30
2018-03-27T00:07:34.575Z,86.68
2018-03-27T00:08:34.349Z,86.97
2018-03-27T00:09:34.409Z,86.97
2018-03-27T00:10:34.473Z,86.78
2018-03-27T00:11:34.530Z,86.59
2018-03-27T00:12:34.606Z,85.64
2018-03-27T00:13:34.669Z,86.49
2018-03-27T00:14:34.717Z,86.78
2018-03-27T00:15:34.774Z,85.64
2018-03-27T00:16:34.837Z,85.26
2018-03-27T00:17:35.058Z,86.30
2018-03-27T00:18:35.126Z,86.78
2018-03-27T00:19:35.049Z,87.06
2018-03-27T00:20:35.082Z,87.06
2018-03-27T00:21:35.189Z,86.87
2018-03-27T00:22:35.239Z,86.30
2018-03-27T00:23:35.270Z,86.49
2018-03-27T00:24:35.326Z,86.49
2018-03-27T00:25:35.398Z,87.54
2018-03-27T00:26:35.446Z,87.06
2018-03-27T00:27:35.514Z,87.35
2018-03-27T00:28:35.576Z,87.25
2018-03-27T00:29:35.630Z,87.54
2018-03-27T00:30:35.738Z,87.54
2018-03-27T00:31:35.754Z,88.01
2018-03-27T00:32:35.902Z,87.16
2018-03-27T00:33:35.886Z,87.06
2018-03-27T00:34:35.935Z,87.45
2018-03-27T00:35:35.998Z,86.30
2018-03-27T00:36:36.090Z,86.97
2018-03-27T00:37:36.119Z,86.11
2018-03-27T00:38:36.355Z,86.97
2018-03-27T00:39:36.242Z,85.93
2018-03-27T00:40:36.322Z,86.30
2018-03-27T00:41:36.362Z,87.30
2018-03-27T00:42:36.427Z,87.21
2018-03-27T00:43:36.491Z,86.83
2018-03-27T00:44:36.550Z,87.49
2018-03-27T00:45:36.606Z,87.12
2018-03-27T00:46:36.672Z,86.83
2018-03-27T00:47:36.736Z,87.59
2018-03-27T00:48:36.794Z,86.74
2018-03-27T00:49:36.856Z,86.93
2018-03-27T00:50:36.911Z,87.30
2018-03-27T00:51:36.971Z,87.40
2018-03-27T00:52:37.035Z,86.83
2018-03-27T00:53:37.391Z,86.93
2018-03-27T00:54:37.155Z,86.83
2018-03-27T00:55:37.222Z,87.02
2018-03-27T00:56:37.283Z,87.02
2018-03-27T00:57:37.555Z,88.54
2018-03-27T00:58:37.408Z,88.59
2018-03-27T00:59:37.467Z,88.35
2018-03-27T01:00:37.831Z,88.63
2018-03-27T01:01:37.584Z,88.68
2018-03-27T01:02:37.648Z,87.64
2018-03-27T01:03:37.712Z,88.49
2018-03-27T01:04:37.772Z,88.87
2018-03-27T01:05:37.824Z,89.44
2018-03-27T01:06:37.939Z,88.59
2018-03-27T01:07:37.948Z,88.40
2018-03-27T01:08:38.016Z,88.21
2018-03-27T01:09:38.076Z,88.59
2018-03-27T01:10:38.304Z,88.30
2018-03-27T01:11:38.196Z,88.96
2018-03-27T01:12:38.252Z,89.15
2018-03-27T01:13:38.508Z,89.72
2018-03-27T01:14:38.372Z,90.48
2018-03-27T01:15:38.432Z,90.95
2018-03-27T01:16:38.548Z,90.48
2018-03-27T01:17:38.560Z,91.14
2018-03-27T01:18:38.620Z,91.05
2018-03-27T01:19:38.692Z,90.86
2018-03-27T01:20:38.742Z,91.05
2018-03-27T01:21:38.796Z,90.44
2018-03-27T01:22:38.856Z,91.05
2018-03-27T01:23:38.932Z,92.00
2018-03-27T01:24:38.989Z,91.24
2018-03-27T01:25:39.045Z,91.81
2018-03-27T01:26:39.100Z,90.81
2018-03-27T01:27:39.169Z,91.19
2018-03-27T01:28:39.760Z,90.91
2018-03-27T01:29:39.281Z,90.91
2018-03-27T01:30:39.344Z,90.53
2018-03-27T01:31:39.513Z,90.63
2018-03-27T01:32:39.465Z,89.87
2018-03-27T01:33:39.533Z,90.15
2018-03-27T01:34:40.013Z,91.86
2018-03-27T01:35:39.648Z,91.00
2018-03-27T01:36:39.706Z,91.00
2018-03-27T01:37:39.845Z,90.81
2018-03-27T01:38:39.825Z,90.81
2018-03-27T01:39:39.897Z,90.81
2018-03-27T01:40:40.162Z,91.48
2018-03-27T01:41:40.014Z,91.57
2018-03-27T01:42:40.073Z,91.86
2018-03-27T01:43:40.133Z,92.61
2018-03-27T01:44:40.189Z,92.61
2018-03-27T01:45:40.277Z,90.91
2018-03-27T01:46:40.441Z,90.81
2018-03-27T01:47:40.373Z,91.57
2018-03-27T01:48:40.431Z,91.57
2018-03-27T01:49:40.490Z,91.86
2018-03-27T01:50:40.557Z,90.81
2018-03-27T01:51:40.622Z,91.48
2018-03-27T01:52:40.673Z,91.00
2018-03-27T01:53:40.919Z,91.00
2018-03-27T01:54:40.793Z,91.38
2018-03-27T01:55:40.938Z,92.43
2018-03-27T01:56:40.922Z,91.95
2018-03-27T01:57:40.974Z,91.24
2018-03-27T01:58:41.034Z,90.77
2018-03-27T01:59:41.194Z,91.05
2018-03-27T02:00:41.173Z,91.43
2018-03-27T02:01:41.214Z,91.05
2018-03-27T02:02:41.278Z,90.96
2018-03-27T02:03:41.342Z,91.05
2018-03-27T02:04:41.487Z,90.96
2018-03-27T02:05:41.466Z,90.77
2018-03-27T02:06:41.530Z,91.81
2018-03-27T02:07:41.574Z,91.81
2018-03-27T02:08:41.634Z,91.72
2018-03-27T02:09:41.698Z,91.34
2018-03-27T02:10:41.766Z,90.96
2018-03-27T02:11:41.966Z,92.00
2018-03-27T02:12:41.946Z,92.00
2018-03-27T02:13:41.942Z,92.19
2018-03-27T02:14:42.002Z,93.32
2018-03-27T02:15:42.063Z,92.57
2018-03-27T02:16:42.163Z,91.81
2018-03-27T02:17:42.183Z,91.43
2018-03-27T02:18:42.254Z,91.72
2018-03-27T02:19:42.323Z,92.00
2018-03-27T02:20:42.661Z,91.34
2018-03-27T02:21:42.423Z,91.05
2018-03-27T02:22:42.494Z,91.53
2018-03-27T02:23:42.542Z,90.77
2018-03-27T02:24:42.603Z,90.96
2018-03-27T02:25:42.670Z,92.29
2018-03-27T02:26:42.727Z,92.66
2018-03-27T02:27:42.797Z,93.23
2018-03-27T02:28:42.849Z,91.81
2018-03-27T02:29:42.899Z,91.53
2018-03-27T02:30:42.976Z,92.00
2018-03-27T02:31:43.023Z,92.19
2018-03-27T02:32:43.183Z,92.19
2018-03-27T02:33:43.168Z,92.57
2018-03-27T02:34:43.196Z,92.57
2018-03-27T02:35:43.564Z,91.62
2018-03-27T02:36:43.315Z,91.81
2018-03-27T02:37:43.377Z,91.62
2018-03-27T02:38:43.436Z,92.85
2018-03-27T02:39:43.556Z,93.89
2018-03-27T02:40:43.559Z,94.65
2018-03-27T02:41:43.767Z,93.89
2018-03-27T02:42:43.716Z,93.42
2018-03-27T02:43:43.736Z,93.61
2018-03-27T02:44:43.853Z,94.93
2018-03-27T02:45:43.860Z,95.40
2018-03-27T02:46:43.925Z,94.65
2018-03-27T02:47:43.986Z,94.18
2018-03-27T02:48:44.044Z,94.74
2018-03-27T02:49:44.100Z,94.46
2018-03-27T02:50:44.152Z,94.93
2018-03-27T02:51:44.213Z,96.07
2018-03-27T02:52:44.392Z,95.69
2018-03-27T02:53:44.333Z,95.50
2018-03-27T02:54:44.392Z,94.65
2018-03-27T02:55:44.454Z,94.74
2018-03-27T02:56:44.512Z,93.99
2018-03-27T02:57:44.579Z,93.61
2018-03-27T02:58:44.636Z,93.51
2018-03-27T02:59:44.692Z,93.18
2018-03-27T03:00:44.756Z,93.75
2018-03-27T03:01:44.812Z,93.85
2018-03-27T03:02:44.875Z,95.17
2018-03-27T03:03:44.941Z,96.50
2018-03-27T03:04:44.993Z,97.20
2018-03-27T03:05:45.051Z,97.44
2018-03-27T03:06:45.108Z,98.44
2018-03-27T03:07:45.285Z,97.77
2018-03-27T03:08:45.228Z,98.06
2018-03-27T03:09:45.385Z,97.02
2018-03-27T03:10:45.349Z,95.97
2018-03-27T03:11:45.404Z,94.93
2018-03-27T03:12:45.472Z,94.84
2018-03-27T03:13:45.589Z,94.74
2018-03-27T03:14:45.584Z,94.93
2018-03-27T03:15:45.649Z,95.64
2018-03-27T03:16:45.705Z,96.21
2018-03-27T03:17:45.827Z,96.50
2018-03-27T03:18:45.833Z,96.69
2018-03-27T03:19:45.885Z,97.06
2018-03-27T03:20:45.945Z,97.34
2018-03-27T03:21:46.001Z,96.50
2018-03-27T03:22:46.141Z,95.93
2018-03-27T03:23:46.129Z,94.70
2018-03-27T03:24:46.185Z,94.32
2018-03-27T03:25:46.241Z,94.51
2018-03-27T03:26:46.369Z,95.36
2018-03-27T03:27:46.386Z,96.35
2018-03-27T03:28:46.661Z,95.93
2018-03-27T03:29:46.485Z,95.55
2018-03-27T03:30:46.538Z,94.98
2018-03-27T03:31:46.590Z,96.02
2018-03-27T03:32:46.669Z,95.26
2018-03-27T03:33:46.726Z,95.45
2018-03-27T03:34:46.774Z,95.36
2018-03-27T03:35:46.846Z,95.74
2018-03-27T03:36:46.897Z,95.64
2018-03-27T03:37:47.162Z,96.02
2018-03-27T03:38:47.022Z,95.93
2018-03-27T03:39:47.082Z,95.36
2018-03-27T03:40:47.134Z,95.17
2018-03-27T03:41:47.190Z,95.45
2018-03-27T03:42:47.270Z,95.74
2018-03-27T03:43:47.309Z,95.07
2018-03-27T03:44:47.373Z,94.70
2018-03-27T03:45:47.430Z,93.56
2018-03-27T03:46:47.490Z,93.75
2018-03-27T03:47:47.558Z,93.85
2018-03-27T03:48:47.615Z,94.51
2018-03-27T03:49:47.734Z,95.83
2018-03-27T03:50:47.730Z,95.83
2018-03-27T03:51:47.790Z,96.50
2018-03-27T03:52:47.859Z,96.02
2018-03-27T03:53:47.914Z,96.31
2018-03-27T03:54:47.966Z,96.31
2018-03-27T03:55:48.038Z,95.83
2018-03-27T03:56:48.098Z,96.12
2018-03-27T03:57:48.162Z,96.02
2018-03-27T03:58:48.202Z,95.83
2018-03-27T03:59:48.271Z,95.36
2018-03-27T04:00:49.042Z,94.89
2018-03-27T04:01:48.418Z,94.70
2018-03-27T04:02:48.482Z,94.60
2018-03-27T04:03:48.522Z,95.07
2018-03-27T04:04:48.559Z,95.36
2018-03-27T04:05:48.619Z,95.83
2018-03-27T04:06:48.686Z,95.64
2018-03-27T04:07:48.755Z,94.70
2018-03-27T04:08:48.903Z,95.36
2018-03-27T04:09:48.854Z,95.55
2018-03-27T04:10:49.067Z,95.74
2018-03-27T04:11:48.998Z,95.74
2018-03-27T04:12:49.054Z,96.69
2018-03-27T04:13:49.098Z,97.16
2018-03-27T04:14:49.151Z,96.69
2018-03-27T04:15:49.235Z,97.25
2018-03-27T04:16:49.275Z,97.16
2018-03-27T04:17:49.375Z,96.31
2018-03-27T04:18:49.399Z,96.31
2018-03-27T04:19:49.472Z,96.21
2018-03-27T04:20:49.510Z,95.55
2018-03-27T04:21:49.576Z,95.45
2018-03-27T04:22:49.675Z,94.98
2018-03-27T04:23:49.700Z,95.07
2018-03-27T04:24:49.756Z,95.26
2018-03-27T04:25:49.815Z,95.74
2018-03-27T04:26:49.879Z,95.07
2018-03-27T04:27:49.972Z,95.26
2018-03-27T04:28:50.000Z,94.42
2018-03-27T04:29:50.247Z,94.32
2018-03-27T04:30:50.108Z,94.51
2018-03-27T04:31:50.169Z,94.51
2018-03-27T04:32:50.219Z,94.70
2018-03-27T04:33:50.458Z,94.51
2018-03-27T04:34:50.352Z,94.51
2018-03-27T04:35:50.408Z,94.89
2018-03-27T04:36:50.468Z,94.60
2018-03-27T04:37:50.518Z,94.60
2018-03-27T04:38:50.613Z,95.07
2018-03-27T04:39:50.644Z,95.07
2018-03-27T04:40:50.700Z,94.42
2018-03-27T04:41:50.756Z,94.42
2018-03-27T04:42:50.811Z,94.70
2018-03-27T04:43:50.880Z,94.42
2018-03-27T04:44:50.940Z,95.45
2018-03-27T04:45:50.988Z,95.45
2018-03-27T04:46:51.057Z,96.73
2018-03-27T04:47:51.116Z,96.45
2018-03-27T04:48:51.322Z,96.35
2018-03-27T04:49:51.228Z,96.07
2018-03-27T04:50:51.297Z,96.26
2018-03-27T04:51:51.348Z,96.35
2018-03-27T04:52:51.476Z,96.69
2018-03-27T04:53:51.468Z,96.35
2018-03-27T04:54:51.534Z,95.78
2018-03-27T04:55:51.588Z,95.88
2018-03-27T04:56:51.716Z,95.40
2018-03-27T04:57:51.713Z,95.12
2018-03-27T04:58:51.767Z,95.78
2018-03-27T04:59:51.985Z,96.16
2018-03-27T05:00:51.881Z,96.35
2018-03-27T05:01:51.940Z,96.64
2018-03-27T05:02:52.002Z,96.45
2018-03-27T05:03:52.061Z,96.54
2018-03-27T05:04:52.123Z,96.92
2018-03-27T05:05:52.184Z,96.64
2018-03-27T05:06:52.236Z,96.64
2018-03-27T05:07:52.304Z,96.92
2018-03-27T05:08:52.361Z,97.20
2018-03-27T05:09:52.469Z,97.77
2018-03-27T05:10:52.469Z,98.43
2018-03-27T05:11:52.533Z,99.05
2018-03-27T05:12:52.681Z,98.43
2018-03-27T05:13:52.661Z,97.96
2018-03-27T05:14:52.717Z,97.96
2018-03-27T05:15:52.770Z,98.01
2018-03-27T05:16:52.821Z,98.20
2018-03-27T05:17:53.009Z,98.24
2018-03-27T05:18:52.945Z,97.72
2018-03-27T05:19:53.006Z,98.20
2018-03-27T05:20:53.158Z,98.39
2018-03-27T05:21:53.125Z,98.39
2018-03-27T05:22:53.178Z,98.39
2018-03-27T05:23:53.254Z,98.29
2018-03-27T05:24:53.417Z,98.58
2018-03-27T05:25:53.357Z,98.67
2018-03-27T05:26:53.453Z,99.24
2018-03-27T05:27:53.468Z,98.29
2018-03-27T05:28:53.537Z,97.72
2018-03-27T05:29:53.694Z,98.01
2018-03-27T05:30:53.651Z,98.01
2018-03-27T05:31:53.750Z,97.63
2018-03-27T05:32:53.829Z,98.10
2018-03-27T05:33:53.922Z,98.29
2018-03-27T05:34:53.894Z,98.96
2018-03-27T05:35:54.006Z,99.15
2018-03-27T05:36:54.058Z,99.80
2018-03-27T05:37:54.066Z,99.71
2018-03-27T05:38:54.143Z,99.71
2018-03-27T05:39:54.178Z,99.99
2018-03-27T05:40:54.234Z,99.71
2018-03-27T05:41:54.362Z,99.71
2018-03-27T05:42:54.378Z,98.96
2018-03-27T05:43:54.435Z,99.43
2018-03-27T05:44:54.486Z,99.52
2018-03-27T05:45:54.534Z,99.33
2018-03-27T05:46:54.941Z,99.24
2018-03-27T05:47:54.654Z,98.77
2018-03-27T05:48:54.735Z,98.86
2018-03-27T05:49:57.631Z,98.20
2018-03-27T05:50:55.725Z,98.44
2018-03-27T05:51:54.886Z,98.25
2018-03-27T05:52:56.622Z,98.91
2018-03-27T05:53:55.468Z,98.82
2018-03-27T05:54:55.086Z,98.44
2018-03-27T05:55:56.102Z,99.19
2018-03-27T05:56:55.191Z,98.63
2018-03-27T05:57:55.319Z,98.91
2018-03-27T05:58:55.335Z,98.82
2018-03-27T05:59:55.476Z,99.01
2018-03-27T06:00:55.474Z,99.10
2018-03-27T06:01:56.067Z,98.63
2018-03-27T06:02:55.563Z,98.72
2018-03-27T06:03:55.695Z,98.82
2018-03-27T06:04:55.748Z,98.34
2018-03-27T06:05:55.739Z,98.44
2018-03-27T06:06:57.003Z,98.15
2018-03-27T06:07:56.064Z,97.87
2018-03-27T06:08:56.016Z,97.58
2018-03-27T06:09:56.168Z,97.96
2018-03-27T06:10:56.031Z,98.15
2018-03-27T06:11:56.388Z,97.39
2018-03-27T06:12:56.213Z,97.49
2018-03-27T06:13:56.183Z,97.30
2018-03-27T06:14:56.671Z,97.39
2018-03-27T06:15:56.360Z,97.30
2018-03-27T06:16:56.471Z,97.20
2018-03-27T06:17:56.420Z,97.02
2018-03-27T06:18:56.483Z,97.35
2018-03-27T06:19:56.596Z,96.97
2018-03-27T06:20:56.928Z,96.50
2018-03-27T06:21:57.367Z,97.16
2018-03-27T06:22:56.744Z,96.97
2018-03-27T06:23:56.837Z,96.59
2018-03-27T06:24:56.937Z,96.59
2018-03-27T06:25:57.964Z,96.12
2018-03-27T06:26:56.976Z,95.83
2018-03-27T06:27:57.308Z,96.02
2018-03-27T06:28:57.184Z,96.02
2018-03-27T06:29:57.446Z,95.64
2018-03-27T06:30:57.485Z,95.45
2018-03-27T06:31:57.296Z,95.36
2018-03-27T06:32:57.348Z,95.17
2018-03-27T06:33:57.380Z,95.07
2018-03-27T06:34:57.524Z,94.70
2018-03-27T06:35:57.657Z,94.79
2018-03-27T06:36:57.589Z,94.23
2018-03-27T06:37:57.608Z,93.94
2018-03-27T06:38:57.681Z,93.94
2018-03-27T06:39:58.485Z,93.89
2018-03-27T06:40:57.853Z,94.08
2018-03-27T06:41:58.248Z,93.70
2018-03-27T06:42:58.021Z,93.89
2018-03-27T06:43:58.001Z,93.70
2018-03-27T06:44:58.117Z,93.32
2018-03-27T06:45:58.272Z,93.23
2018-03-27T06:46:58.210Z,93.42
2018-03-27T06:47:58.265Z,93.04
2018-03-27T06:48:58.369Z,93.61
2018-03-27T06:49:58.333Z,93.32
2018-03-27T06:50:58.393Z,92.85
2018-03-27T06:51:58.477Z,92.66
2018-03-27T06:52:58.561Z,92.76
2018-03-27T06:53:58.645Z,92.66
2018-03-27T06:54:58.762Z,91.81
2018-03-27T06:55:58.709Z,91.81
2018-03-27T06:56:58.821Z,92.19
2018-03-27T06:57:58.829Z,91.52
2018-03-27T06:58:58.925Z,90.86
2018-03-27T06:59:58.929Z,91.19
2018-03-27T07:01:00.246Z,91.00
2018-03-27T07:01:59.117Z,90.91
2018-03-27T07:02:59.166Z,90.81
2018-03-27T07:03:59.234Z,90.91
2018-03-27T07:04:59.254Z,90.81
2018-03-27T07:05:59.731Z,90.91
2018-03-27T07:06:59.362Z,91.00
2018-03-27T07:07:59.877Z,90.43
2018-03-27T07:08:59.507Z,89.67
2018-03-27T07:09:59.562Z,89.58
2018-03-27T07:10:59.609Z,89.67
2018-03-27T07:12:00.670Z,89.29
2018-03-27T07:12:59.777Z,88.82
2018-03-27T07:14:00.370Z,89.01
2018-03-27T07:14:59.841Z,88.63
2018-03-27T07:16:00.266Z,89.11
2018-03-27T07:17:00.304Z,88.82
2018-03-27T07:18:00.031Z,88.10
2018-03-27T07:19:00.070Z,88.48
2018-03-27T07:20:00.210Z,87.54
2018-03-27T07:21:00.314Z,88.01
2018-03-27T07:22:00.366Z,87.45
2018-03-27T07:23:00.314Z,86.87
2018-03-27T07:24:00.362Z,87.06
2018-03-27T07:25:00.434Z,87.45
2018-03-27T07:26:00.487Z,86.87
2018-03-27T07:27:00.685Z,86.68
2018-03-27T07:28:00.827Z,86.87
2018-03-27T07:29:00.675Z,86.68
2018-03-27T07:30:01.691Z,86.49
2018-03-27T07:31:00.939Z,86.11
2018-03-27T07:32:01.002Z,85.64
2018-03-27T07:33:01.035Z,85.78
2018-03-27T07:34:01.171Z,85.49
2018-03-27T07:35:01.031Z,85.40
2018-03-27T07:36:01.195Z,85.40
2018-03-27T07:37:01.407Z,84.83
2018-03-27T07:38:01.239Z,83.16
2018-03-27T07:39:01.319Z,80.21
2018-03-27T07:40:01.695Z,78.06
2018-03-27T07:41:01.415Z,75.43
2018-03-27T07:42:01.647Z,73.19
2018-03-27T07:43:01.519Z,69.95
2018-03-27T07:44:01.686Z,68.75
2018-03-27T07:45:01.674Z,67.70
2018-03-27T07:46:01.707Z,66.78
2018-03-27T07:47:01.796Z,65.36
2018-03-27T07:48:06.027Z,64.62
2018-03-27T07:49:01.893Z,63.76
2018-03-27T07:50:01.954Z,62.91
2018-03-27T07:51:02.012Z,62.34
2018-03-27T07:52:02.097Z,62.08
2018-03-27T07:53:02.143Z,61.22
2018-03-27T07:54:02.356Z,60.55
2018-03-27T07:55:02.267Z,59.92
2018-03-27T07:56:02.404Z,60.90
2018-03-27T07:57:02.412Z,59.78
2018-03-27T07:58:02.496Z,56.23
2018-03-27T07:59:02.756Z,55.84
2018-03-27T08:00:02.604Z,55.55
2018-03-27T08:01:02.772Z,55.87
2018-03-27T08:02:02.732Z,54.08
2018-03-27T08:03:02.892Z,55.04
2018-03-27T08:04:02.864Z,54.32
2018-03-27T08:05:02.925Z,54.29
2018-03-27T08:06:03.068Z,55.72
2018-03-27T08:07:03.056Z,56.24
2018-03-27T08:08:03.130Z,57.54
2018-03-27T08:09:03.196Z,58.97
2018-03-27T08:10:03.253Z,59.70
2018-03-27T08:11:03.339Z,61.32
2018-03-27T08:12:03.422Z,62.75
2018-03-27T08:13:03.466Z,63.13
2018-03-27T08:14:03.521Z,63.70
2018-03-27T08:15:03.733Z,64.37
2018-03-27T08:16:03.645Z,64.47
2018-03-27T08:17:03.753Z,64.37
2018-03-27T08:18:03.801Z,64.18
2018-03-27T08:19:03.841Z,64.28
2018-03-27T08:20:04.021Z,64.24
2018-03-27T08:21:03.976Z,65.67
2018-03-27T08:22:04.049Z,65.86
2018-03-27T08:23:04.141Z,65.58
2018-03-27T08:24:04.234Z,65.77
2018-03-27T08:25:04.235Z,65.29
2018-03-27T08:26:04.301Z,64.56
2018-03-27T08:27:04.461Z,63.89
2018-03-27T08:28:04.430Z,62.30
2018-03-27T08:29:04.494Z,62.27
2018-03-27T08:30:04.662Z,63.57
2018-03-27T08:31:04.621Z,64.53
2018-03-27T08:32:04.722Z,65.29
2018-03-27T08:33:04.770Z,64.90
2018-03-27T08:34:04.818Z,65.48
2018-03-27T08:35:04.881Z,65.48
2018-03-27T08:36:04.944Z,65.95
2018-03-27T08:37:05.029Z,66.43
2018-03-27T08:38:05.078Z,66.53
2018-03-27T08:39:05.157Z,67.19
2018-03-27T08:40:05.202Z,66.53
2018-03-27T08:41:05.362Z,66.72
2018-03-27T08:42:05.413Z,67.10
2018-03-27T08:43:05.410Z,67.29
2018-03-27T08:44:05.454Z,67.29
2018-03-27T08:45:05.526Z,67.29
2018-03-27T08:46:05.586Z,67.10
2018-03-27T08:47:05.650Z,65.77
2018-03-27T08:48:05.722Z,66.33
2018-03-27T08:49:05.785Z,66.46
2018-03-27T08:50:05.838Z,65.99
2018-03-27T08:51:06.050Z,65.32
2018-03-27T08:52:05.978Z,64.18
2018-03-27T08:53:06.040Z,63.89
2018-03-27T08:54:06.374Z,62.94
2018-03-27T08:55:06.166Z,62.18
2018-03-27T08:56:06.281Z,62.34
2018-03-27T08:57:06.287Z,62.65
2018-03-27T08:58:06.374Z,63.01
2018-03-27T08:59:06.414Z,63.48
2018-03-27T09:00:06.654Z,63.01
2018-03-27T09:01:06.542Z,62.46
2018-03-27T09:02:06.607Z,61.61
2018-03-27T09:03:06.678Z,60.94
2018-03-27T09:04:06.739Z,60.88
2018-03-27T09:05:06.799Z,60.81
2018-03-27T09:06:06.859Z,59.45
2018-03-27T09:07:06.931Z,58.24
2018-03-27T09:08:06.995Z,57.70
2018-03-27T09:09:07.211Z,56.74
2018-03-27T09:10:07.119Z,57.22
2018-03-27T09:11:07.179Z,56.04
2018-03-27T09:12:07.243Z,54.63
2018-03-27T09:13:07.471Z,54.72
2018-03-27T09:14:07.371Z,52.91
2018-03-27T09:15:07.437Z,52.98
2018-03-27T09:16:07.505Z,53.14
2018-03-27T09:17:07.576Z,53.43
2018-03-27T09:18:07.679Z,53.55
2018-03-27T09:19:07.703Z,53.45
2018-03-27T09:20:07.759Z,53.08
2018-03-27T09:21:08.063Z,52.09
2018-03-27T09:22:07.932Z,52.38
2018-03-27T09:23:07.963Z,53.14
2018-03-27T09:24:08.028Z,52.55
2018-03-27T09:25:08.108Z,52.92
2018-03-27T09:26:08.152Z,52.52
2018-03-27T09:27:08.211Z,54.43
2018-03-27T09:28:08.292Z,53.95
2018-03-27T09:29:08.344Z,54.43
2018-03-27T09:30:08.412Z,54.39
2018-03-27T09:31:08.480Z,54.49
2018-03-27T09:32:08.600Z,54.59
2018-03-27T09:33:08.607Z,54.88
2018-03-27T09:34:08.772Z,55.63
2018-03-27T09:35:08.741Z,55.83
2018-03-27T09:36:08.801Z,56.18
2018-03-27T09:37:08.909Z,56.75
2018-03-27T09:38:08.932Z,57.23
2018-03-27T09:39:09.020Z,57.04
2018-03-27T09:40:09.052Z,56.85
2018-03-27T09:41:09.124Z,56.85
2018-03-27T09:42:09.184Z,55.90
2018-03-27T09:43:09.356Z,55.99
2018-03-27T09:44:09.312Z,55.99
2018-03-27T09:45:09.580Z,56.18
2018-03-27T09:46:09.564Z,56.46
2018-03-27T09:47:09.500Z,56.18
2018-03-27T09:48:09.581Z,55.99
2018-03-27T09:49:09.637Z,55.99
2018-03-27T09:50:09.692Z,56.85
2018-03-27T09:51:09.761Z,56.37
2018-03-27T09:52:09.821Z,55.61
2018-03-27T09:53:09.896Z,55.70
2018-03-27T09:54:09.957Z,55.99
2018-03-27T09:55:10.021Z,55.90
2018-03-27T09:56:11.045Z,55.99
2018-03-27T09:57:10.142Z,55.80
2018-03-27T09:58:10.237Z,55.61
2018-03-27T09:59:10.269Z,55.13
2018-03-27T10:00:10.337Z,55.44
2018-03-27T10:01:10.397Z,54.11
2018-03-27T10:02:10.461Z,53.64
2018-03-27T10:03:10.533Z,54.24
2018-03-27T10:04:10.593Z,53.56
2018-03-27T10:05:10.789Z,53.09
2018-03-27T10:06:10.713Z,52.14
2018-03-27T10:07:10.780Z,50.92
2018-03-27T10:08:10.851Z,51.12
2018-03-27T10:09:11.057Z,50.09
2018-03-27T10:10:10.989Z,47.99
2018-03-27T10:11:11.038Z,47.23
2018-03-27T10:12:11.097Z,46.39
2018-03-27T10:13:11.433Z,46.39
2018-03-27T10:14:11.225Z,46.11
2018-03-27T10:15:11.314Z,43.74
2018-03-27T10:16:11.357Z,43.55
2018-03-27T10:17:11.445Z,43.65
2018-03-27T10:18:11.538Z,43.55
2018-03-27T10:19:11.574Z,42.60
2018-03-27T10:20:11.617Z,42.11
2018-03-27T10:21:11.710Z,41.06
2018-03-27T10:22:11.799Z,40.88
2018-03-27T10:23:11.810Z,41.05
2018-03-27T10:24:11.874Z,41.71
2018-03-27T10:25:11.946Z,41.52
2018-03-27T10:26:12.013Z,42.96
2018-03-27T10:27:12.067Z,44.20
2018-03-27T10:28:12.234Z,43.33
2018-03-27T10:29:12.202Z,43.32
2018-03-27T10:30:12.254Z,44.84
2018-03-27T10:31:12.354Z,45.15
2018-03-27T10:32:12.386Z,43.15
2018-03-27T10:33:12.478Z,42.86
2018-03-27T10:34:12.526Z,42.10
2018-03-27T10:35:12.587Z,41.22
2018-03-27T10:36:12.658Z,40.93
2018-03-27T10:37:12.714Z,40.93
2018-03-27T10:38:12.782Z,41.50
2018-03-27T10:39:12.869Z,41.50
2018-03-27T10:40:12.902Z,41.69
2018-03-27T10:41:12.970Z,41.24
2018-03-27T10:42:13.036Z,40.95
2018-03-27T10:43:13.111Z,41.35
2018-03-27T10:44:13.187Z,40.95
2018-03-27T10:45:13.226Z,40.95
2018-03-27T10:46:13.294Z,40.95
2018-03-27T10:47:13.403Z,41.06
2018-03-27T10:48:13.426Z,40.95
2018-03-27T10:49:13.518Z,41.05
2018-03-27T10:50:13.555Z,40.95
2018-03-27T10:51:13.615Z,41.31
2018-03-27T10:52:13.678Z,41.60
2018-03-27T10:53:13.755Z,41.79
2018-03-27T10:54:13.851Z,41.50
2018-03-27T10:55:13.871Z,41.48
2018-03-27T10:56:13.943Z,41.48
2018-03-27T10:57:14.003Z,42.44
2018-03-27T10:58:14.071Z,41.67
2018-03-27T10:59:14.139Z,41.60
2018-03-27T11:00:14.819Z,40.93
2018-03-27T11:01:14.259Z,41.12
2018-03-27T11:02:14.327Z,39.69
2018-03-27T11:03:14.476Z,39.69
2018-03-27T11:04:14.461Z,39.78
2018-03-27T11:05:14.519Z,40.28
2018-03-27T11:06:14.583Z,39.52
2018-03-27T11:07:14.647Z,38.95
2018-03-27T11:08:14.720Z,39.14
2018-03-27T11:09:14.784Z,38.95
2018-03-27T11:10:14.975Z,38.76
2018-03-27T11:11:14.944Z,39.42
2018-03-27T11:12:14.972Z,39.12
2018-03-27T11:13:15.107Z,39.31
2018-03-27T11:14:15.104Z,39.61
2018-03-27T11:15:15.203Z,39.32
2018-03-27T11:16:15.251Z,38.78
2018-03-27T11:17:15.292Z,37.63
2018-03-27T11:18:15.456Z,39.37
2018-03-27T11:19:15.444Z,38.39
2018-03-27T11:20:15.488Z,38.58
2018-03-27T11:21:15.556Z,38.39
2018-03-27T11:22:15.617Z,37.92
2018-03-27T11:23:15.726Z,37.15
2018-03-27T11:24:15.748Z,37.24
2018-03-27T11:25:15.816Z,37.15
2018-03-27T11:26:15.876Z,37.92
2018-03-27T11:27:15.940Z,38.09
2018-03-27T11:28:16.042Z,38.93
2018-03-27T11:29:16.106Z,38.93
2018-03-27T11:30:16.133Z,39.59
2018-03-27T11:31:16.201Z,39.23
2018-03-27T11:32:16.265Z,39.52
2018-03-27T11:33:16.339Z,39.90
2018-03-27T11:34:16.401Z,40.00
2018-03-27T11:35:16.465Z,39.90
2018-03-27T11:36:16.525Z,40.00
2018-03-27T11:37:16.589Z,39.23
2018-03-27T11:38:16.661Z,40.00
2018-03-27T11:39:16.725Z,40.28
2018-03-27T11:40:16.781Z,41.05
2018-03-27T11:41:16.847Z,41.14
2018-03-27T11:42:16.909Z,40.95
2018-03-27T11:43:16.981Z,41.05
2018-03-27T11:44:17.165Z,40.37
2018-03-27T11:45:17.109Z,40.95
2018-03-27T11:46:17.175Z,40.88
2018-03-27T11:47:17.365Z,41.55
2018-03-27T11:48:17.303Z,41.55
2018-03-27T11:49:17.481Z,40.88
2018-03-27T11:50:17.429Z,40.01
2018-03-27T11:51:17.494Z,40.01
2018-03-27T11:52:17.641Z,39.94
2018-03-27T11:53:17.691Z,40.23
2018-03-27T11:54:17.702Z,41.09
2018-03-27T11:55:17.762Z,41.26
2018-03-27T11:56:17.820Z,40.78
2018-03-27T11:57:17.882Z,42.50
2018-03-27T11:58:17.946Z,41.64
2018-03-27T11:59:18.174Z,42.11
2018-03-27T12:00:18.086Z,42.00
2018-03-27T12:01:18.142Z,42.48
2018-03-27T12:02:18.386Z,42.57
2018-03-27T12:03:18.306Z,43.22
2018-03-27T12:04:18.346Z,43.33
2018-03-27T12:05:18.410Z,43.43
2018-03-27T12:06:18.482Z,43.91
2018-03-27T12:07:18.534Z,43.89
2018-03-27T12:08:18.599Z,43.53
2018-03-27T12:09:18.754Z,43.82
2018-03-27T12:10:18.743Z,43.53
2018-03-27T12:11:18.790Z,43.07
2018-03-27T12:12:18.855Z,43.74
2018-03-27T12:13:18.918Z,43.65
2018-03-27T12:14:19.107Z,44.31
2018-03-27T12:15:19.068Z,43.46
2018-03-27T12:16:19.118Z,42.79
2018-03-27T12:17:19.179Z,42.11
2018-03-27T12:18:19.247Z,42.69
2018-03-27T12:19:19.615Z,41.93
2018-03-27T12:20:19.378Z,42.50
2018-03-27T12:21:19.439Z,42.50
2018-03-27T12:22:19.518Z,42.86
2018-03-27T12:23:19.567Z,43.24
2018-03-27T12:24:19.906Z,44.01
2018-03-27T12:25:19.703Z,44.77
2018-03-27T12:26:19.766Z,44.77
2018-03-27T12:27:19.867Z,44.87
2018-03-27T12:28:19.902Z,45.53
2018-03-27T12:29:19.987Z,45.43
2018-03-27T12:30:20.027Z,45.72
2018-03-27T12:31:20.087Z,46.11
2018-03-27T12:32:20.155Z,45.15
2018-03-27T12:33:20.215Z,46.01
2018-03-27T12:34:20.399Z,46.11
2018-03-27T12:35:20.343Z,46.20
2018-03-27T12:36:20.415Z,46.11
2018-03-27T12:37:20.515Z,46.20
2018-03-27T12:38:20.535Z,46.11
2018-03-27T12:39:20.621Z,45.53
2018-03-27T12:40:20.679Z,46.01
2018-03-27T12:41:20.739Z,45.82
2018-03-27T12:42:20.814Z,46.22
2018-03-27T12:43:21.036Z,45.43
2018-03-27T12:44:20.927Z,44.58
2018-03-27T12:45:21.068Z,44.87
2018-03-27T12:46:21.060Z,46.01
2018-03-27T12:47:21.128Z,46.01
2018-03-27T12:48:21.184Z,45.92
2018-03-27T12:49:21.588Z,45.43
2018-03-27T12:50:21.320Z,45.53
2018-03-27T12:51:21.378Z,46.30
2018-03-27T12:52:21.456Z,46.11
2018-03-27T12:53:21.516Z,45.42